Time;durP1;ratioP1;P1;durP2;ratioP2;P2;SDS_P1;SDS_P2;PMS_P1;PMS_P2;Temp;Humidity;BMP_temperature;BMP_pressure;BME280_temperature;BME280_humidity;BME280_pressure;Samples;Min_cycle;Max_cycle;Signal;HPM_P1;HPM_P2
2022/12/25 00:00:08;;;;;;;1999.90;999.90;;;9.10;99.90;;;;;;5051208;28;20410;-70
2022/12/25 00:02:34;;;;;;;1999.90;999.90;;;9.10;99.90;;;;;;5051250;28;20266;-70
2022/12/25 00:05:00;;;;;;;1999.90;999.90;;;9.10;99.90;;;;;;5051115;28;20426;-70
2022/12/25 00:07:25;;;;;;;1999.90;999.90;;;9.20;99.90;;;;;;5053734;28;20175;-69
2022/12/25 00:09:51;;;;;;;1999.90;999.90;;;9.20;99.90;;;;;;5054539;28;20256;-70
2022/12/25 00:12:18;;;;;;;1999.90;999.90;;;9.20;99.90;;;;;;5054776;28;20591;-70
2022/12/25 00:14:43;;;;;;;1999.90;999.90;;;9.30;99.90;;;;;;5054635;28;20204;-69
2022/12/25 00:17:09;;;;;;;1999.90;999.90;;;9.30;99.90;;;;;;5054476;28;20753;-71
2022/12/25 00:19:35;;;;;;;1999.90;999.90;;;9.20;99.90;;;;;;5054503;28;20657;-71
2022/12/25 00:22:00;;;;;;;1999.90;999.90;;;9.20;99.90;;;;;;5054670;28;20187;-69
2022/12/25 00:24:26;;;;;;;1999.90;999.90;;;9.20;99.90;;;;;;5054352;28;20681;-70
2022/12/25 00:26:52;;;;;;;1999.90;999.90;;;9.20;99.90;;;;;;5054514;28;20618;-70
2022/12/25 00:29:17;;;;;;;1999.90;999.90;;;9.20;99.90;;;;;;5054245;28;20201;-70
2022/12/25 00:31:43;;;;;;;1999.90;999.90;;;9.40;99.90;;;;;;5054302;28;20633;-69
2022/12/25 00:34:08;;;;;;;1999.90;999.90;;;9.40;99.90;;;;;;5054262;28;20181;-70
2022/12/25 00:36:34;;;;;;;1999.90;999.90;;;9.40;99.90;;;;;;5054210;28;20167;-69
2022/12/25 00:38:59;;;;;;;1999.90;999.90;;;9.30;99.90;;;;;;5053961;28;20183;-70
2022/12/25 00:44:12;;;;;;;1999.90;999.90;;;9.30;99.90;;;;;;5054151;28;20258;-70
2022/12/25 00:46:38;;;;;;;1999.90;999.90;;;9.40;99.90;;;;;;5054642;28;20406;-71
2022/12/25 00:49:04;;;;;;;1999.90;999.90;;;9.30;99.90;;;;;;5053804;28;20411;-70
2022/12/25 00:51:29;;;;;;;1999.90;999.90;;;9.30;99.90;;;;;;5053906;28;20901;-71
2022/12/25 00:53:55;;;;;;;1999.90;999.90;;;9.30;99.90;;;;;;5053773;28;20435;-70
2022/12/25 00:56:21;;;;;;;1999.90;999.90;;;9.20;99.90;;;;;;5053759;28;20173;-70
2022/12/25 00:58:46;;;;;;;1999.90;999.90;;;9.20;99.90;;;;;;5053591;28;20176;-70
2022/12/25 01:01:12;;;;;;;1999.90;999.90;;;9.20;99.90;;;;;;5053858;28;20178;-70
2022/12/25 01:03:38;;;;;;;1999.90;999.90;;;9.20;99.90;;;;;;5053648;28;20225;-71
2022/12/25 01:06:06;;;;;;;1999.90;999.90;;;9.30;99.90;;;;;;5053480;28;20238;-69
2022/12/25 01:08:35;;;;;;;1999.90;999.90;;;9.20;99.90;;;;;;5053674;28;20831;-69
2022/12/25 01:11:06;;;;;;;1999.90;999.90;;;9.20;99.90;;;;;;5053473;28;20441;-70
2022/12/25 01:13:34;;;;;;;1999.90;999.90;;;9.30;99.90;;;;;;5053563;28;20415;-71
2022/12/25 01:16:10;;;;;;;1999.90;999.90;;;9.30;99.90;;;;;;5053269;28;20432;-70
2022/12/25 01:18:36;;;;;;;1999.90;999.90;;;9.20;99.90;;;;;;5053104;28;20490;-69
2022/12/25 01:21:06;;;;;;;1999.90;999.90;;;9.30;99.90;;;;;;5053365;28;20420;-69
2022/12/25 01:23:32;;;;;;;1999.90;999.90;;;9.30;99.90;;;;;;5053442;28;20520;-70
2022/12/25 01:26:06;;;;;;;1999.90;999.90;;;9.30;99.90;;;;;;5053045;28;20439;-69
2022/12/25 01:28:31;;;;;;;1999.90;999.90;;;9.30;99.90;;;;;;5053114;28;20168;-70
2022/12/25 01:30:57;;;;;;;1999.90;999.90;;;9.20;99.90;;;;;;5053123;28;20524;-70
2022/12/25 01:33:22;;;;;;;1999.90;999.90;;;9.20;99.90;;;;;;5053183;28;20171;-71
2022/12/25 01:35:48;;;;;;;1999.90;999.90;;;9.10;99.90;;;;;;5053159;28;20548;-70
2022/12/25 01:38:14;;;;;;;1999.90;999.90;;;8.80;99.90;;;;;;5052826;28;20176;-70
2022/12/25 01:40:39;;;;;;;1999.90;999.90;;;8.60;99.90;;;;;;5052925;28;20177;-69
2022/12/25 01:43:23;;;;;;;1999.90;999.90;;;8.40;99.90;;;;;;5052936;28;20216;-70
2022/12/25 01:45:51;;;;;;;1999.90;999.90;;;8.50;99.90;;;;;;5052798;28;20635;-69
2022/12/25 01:48:20;;;;;;;1999.90;999.90;;;8.50;99.90;;;;;;5052678;28;20445;-69
2022/12/25 01:50:58;;;;;;;1999.90;999.90;;;8.60;99.90;;;;;;5052849;28;20407;-70
2022/12/25 01:53:24;;;;;;;1999.90;999.90;;;8.60;99.90;;;;;;5052830;28;20414;-70
2022/12/25 01:55:55;;;;;;;1999.90;999.90;;;8.50;99.90;;;;;;5052441;28;21045;-70
2022/12/25 01:58:21;;;;;;;1999.90;999.90;;;8.50;99.90;;;;;;5052513;28;20454;-70
2022/12/25 02:00:47;;;;;;;1999.90;999.90;;;8.60;99.90;;;;;;5052583;28;20413;-71
2022/12/25 02:03:13;;;;;;;1999.90;999.90;;;8.60;99.90;;;;;;5052528;28;20455;-69
2022/12/25 02:05:39;;;;;;;1999.90;999.90;;;8.60;99.90;;;;;;5052577;28;20188;-69
2022/12/25 02:08:12;;;;;;;1999.90;999.90;;;8.60;99.90;;;;;;5052290;28;20174;-70
2022/12/25 02:10:38;;;;;;;1999.90;999.90;;;8.60;99.90;;;;;;5052413;28;20404;-71
2022/12/25 02:13:05;;;;;;;1999.90;999.90;;;8.60;99.90;;;;;;5052297;28;20413;-70
2022/12/25 02:15:41;;;;;;;1999.90;999.90;;;8.60;99.90;;;;;;5052330;28;20533;-70
2022/12/25 02:18:25;;;;;;;1999.90;999.90;;;8.60;99.90;;;;;;5052091;28;20441;-69
2022/12/25 02:21:19;;;;;;;1999.90;999.90;;;8.60;99.90;;;;;;5052257;28;20850;-70
2022/12/25 02:23:54;;;;;;;1999.90;999.90;;;8.60;99.90;;;;;;5052506;28;20500;-69
2022/12/25 02:26:50;;;;;;;1999.90;999.90;;;8.50;99.90;;;;;;5052133;28;20495;-70
2022/12/25 02:29:48;;;;;;;1999.90;999.90;;;8.50;99.90;;;;;;5051520;28;20957;-70
2022/12/25 02:32:44;;;;;;;1999.90;999.90;;;8.50;99.90;;;;;;5052301;28;20577;-70
2022/12/25 02:35:31;;;;;;;1999.90;999.90;;;8.40;99.90;;;;;;5050843;28;20440;-70
2022/12/25 02:38:06;;;;;;;1999.90;999.90;;;8.40;99.90;;;;;;5051707;28;20416;-69
2022/12/25 02:40:42;;;;;;;1999.90;999.90;;;8.50;99.90;;;;;;5052045;28;20816;-70
2022/12/25 03:08:41;;;;;;;1999.90;999.90;;;8.40;99.90;;;;;;5051804;28;20429;-69
2022/12/25 03:16:55;;;;;;;1999.90;999.90;;;8.40;99.90;;;;;;5051826;28;20503;-69
2022/12/25 03:27:47;;;;;;;1999.90;999.90;;;8.50;99.90;;;;;;5051620;28;20455;-70
2022/12/25 03:33:02;;;;;;;1999.90;999.90;;;8.80;99.90;;;;;;5051789;28;20417;-70
2022/12/25 03:35:48;;;;;;;1999.90;999.90;;;8.90;99.90;;;;;;5051531;28;20427;-70
2022/12/25 04:36:44;;;;;;;1999.90;999.90;;;9.30;99.90;;;;;;5054211;28;20405;-69
2022/12/25 04:39:10;;;;;;;1999.90;999.90;;;9.30;99.90;;;;;;5054023;28;20413;-70
2022/12/25 04:41:35;;;;;;;1999.90;999.90;;;9.20;99.90;;;;;;5054085;28;20231;-69
2022/12/25 04:44:01;;;;;;;1999.90;999.90;;;8.90;99.90;;;;;;5053973;28;20493;-70
2022/12/25 04:46:27;;;;;;;1999.90;999.90;;;9.20;99.90;;;;;;5053972;28;20168;-69
2022/12/25 04:48:52;;;;;;;1999.90;999.90;;;9.20;99.90;;;;;;5053879;28;20176;-70
2022/12/25 04:51:21;;;;;;;1999.90;999.90;;;9.20;99.90;;;;;;5053806;28;20171;-69
2022/12/25 04:53:47;;;;;;;1999.90;999.90;;;9.20;99.90;;;;;;5053616;28;20258;-70
2022/12/25 04:56:13;;;;;;;1999.90;999.90;;;9.20;99.90;;;;;;5053904;28;20905;-70
2022/12/25 04:58:40;;;;;;;1999.90;999.90;;;9.20;99.90;;;;;;5053814;28;20418;-70
2022/12/25 05:01:06;;;;;;;1999.90;999.90;;;9.30;99.90;;;;;;5053855;28;20417;-70
2022/12/25 05:03:32;;;;;;;1999.90;999.90;;;9.30;99.90;;;;;;5053635;28;20463;-70
2022/12/25 05:05:58;;;;;;;1999.90;999.90;;;9.30;99.90;;;;;;5053630;28;20785;-70
2022/12/25 05:08:24;;;;;;;1999.90;999.90;;;9.30;99.90;;;;;;5053638;28;20654;-71
2022/12/25 05:10:50;;;;;;;1999.90;999.90;;;9.40;99.90;;;;;;5053752;28;20441;-69
2022/12/25 05:13:16;;;;;;;1999.90;999.90;;;9.50;99.90;;;;;;5053567;28;20174;-70
2022/12/25 05:15:42;;;;;;;1999.90;999.90;;;9.50;99.90;;;;;;5053373;28;20437;-69
2022/12/25 05:18:08;;;;;;;1999.90;999.90;;;9.60;99.90;;;;;;5053189;28;20894;-70
2022/12/25 05:20:34;;;;;;;1999.90;999.90;;;9.60;99.90;;;;;;5053421;28;20406;-69
2022/12/25 05:22:59;;;;;;;1999.90;999.90;;;9.50;99.90;;;;;;5053489;28;20321;-70
2022/12/25 05:25:25;;;;;;;1999.90;999.90;;;9.50;99.90;;;;;;5053324;28;20202;-69
2022/12/25 05:27:50;;;;;;;1999.90;999.90;;;9.50;99.90;;;;;;5053162;28;20176;-69
2022/12/25 05:30:16;;;;;;;1999.90;999.90;;;9.60;99.90;;;;;;5053212;28;20181;-70
2022/12/25 05:32:42;;;;;;;1999.90;999.90;;;9.60;99.90;;;;;;5053156;28;20635;-69
2022/12/25 05:35:08;;;;;;;1999.90;999.90;;;9.60;99.90;;;;;;5053093;28;20569;-69
2022/12/25 05:37:34;;;;;;;1999.90;999.90;;;9.60;99.90;;;;;;5053061;28;20524;-69
2022/12/25 05:40:00;;;;;;;1999.90;999.90;;;9.60;99.90;;;;;;5052977;28;20411;-69
2022/12/25 05:42:26;;;;;;;1999.90;999.90;;;9.70;99.90;;;;;;5052913;28;20435;-69
2022/12/25 05:44:51;;;;;;;1999.90;999.90;;;9.70;99.90;;;;;;5052894;28;20440;-69
2022/12/25 05:47:17;;;;;;;1999.90;999.90;;;9.70;99.90;;;;;;5052630;28;20683;-70
2022/12/25 05:49:43;;;;;;;1999.90;999.90;;;9.60;99.90;;;;;;5052746;28;20171;-70
2022/12/25 05:52:08;;;;;;;1999.90;999.90;;;9.60;99.90;;;;;;5052978;28;20261;-69
2022/12/25 05:54:34;;;;;;;1999.90;999.90;;;9.70;99.90;;;;;;5052678;28;20555;-70
2022/12/25 05:57:00;;;;;;;1999.90;999.90;;;9.60;99.90;;;;;;5052701;28;20591;-70
2022/12/25 05:59:29;;;;;;;1999.90;999.90;;;9.60;99.90;;;;;;5052428;28;20414;-71
2022/12/25 06:01:55;;;;;;;1999.90;999.90;;;9.60;99.90;;;;;;5052603;28;20908;-70
2022/12/25 06:04:20;;;;;;;1999.90;999.90;;;9.70;99.90;;;;;;5051645;28;20446;-70
2022/12/25 06:06:46;;;;;;;1999.90;999.90;;;10.00;99.90;;;;;;5052692;28;20169;-70
2022/12/25 06:09:12;;;;;;;1999.90;999.90;;;9.50;99.90;;;;;;5052274;28;20636;-70
2022/12/25 06:11:38;;;;;;;1999.90;999.90;;;9.50;99.90;;;;;;5052397;28;20176;-70
2022/12/25 06:14:04;;;;;;;1999.90;999.90;;;9.40;99.90;;;;;;5052344;28;20180;-69
2022/12/25 06:16:30;;;;;;;1999.90;999.90;;;9.50;99.90;;;;;;5052262;28;20454;-70
2022/12/25 06:18:55;;;;;;;1999.90;999.90;;;9.50;99.90;;;;;;5052068;28;20443;-71
2022/12/25 06:21:21;;;;;;;1999.90;999.90;;;9.60;99.90;;;;;;5052358;28;20175;-70
2022/12/25 06:23:47;;;;;;;1999.90;999.90;;;9.60;99.90;;;;;;5052240;28;20281;-70
2022/12/25 06:26:18;;;;;;;1999.90;999.90;;;9.60;99.90;;;;;;5052088;28;20210;-69
2022/12/25 06:28:44;;;;;;;1999.90;999.90;;;9.70;99.90;;;;;;5052186;28;20408;-70
2022/12/25 06:31:16;;;;;;;1999.90;999.90;;;9.70;99.90;;;;;;5052167;28;20404;-70
2022/12/25 06:33:42;;;;;;;1999.90;999.90;;;9.70;99.90;;;;;;5052182;28;20836;-69
2022/12/25 06:36:21;;;;;;;1999.90;999.90;;;9.70;99.90;;;;;;5051908;28;20530;-70
2022/12/25 06:38:48;;;;;;;1999.90;999.90;;;9.80;99.90;;;;;;5051940;28;20416;-70
2022/12/25 06:41:21;;;;;;;1999.90;999.90;;;9.80;99.90;;;;;;5052013;28;20976;-70
2022/12/25 06:43:48;;;;;;;1999.90;999.90;;;9.90;99.90;;;;;;5052037;28;20432;-69
2022/12/25 06:46:14;;;;;;;1999.90;999.90;;;9.80;99.90;;;;;;5052180;28;20434;-71
2022/12/25 06:48:46;;;;;;;1999.90;999.90;;;9.80;99.90;;;;;;5051720;28;20400;-71
2022/12/25 06:51:12;;;;;;;1999.90;999.90;;;9.70;99.90;;;;;;5052027;28;20182;-71
2022/12/25 06:53:38;;;;;;;1999.90;999.90;;;9.80;99.90;;;;;;5051886;28;20484;-71
2022/12/25 06:56:08;;;;;;;1999.90;999.90;;;9.70;99.90;;;;;;5051619;28;20550;-70
2022/12/25 06:58:34;;;;;;;1999.90;999.90;;;9.80;99.90;;;;;;5051699;28;20180;-70
2022/12/25 07:01:04;;;;;;;1999.90;999.90;;;9.70;99.90;;;;;;5051804;28;20402;-69
2022/12/25 07:03:30;;;;;;;1999.90;999.90;;;9.70;99.90;;;;;;5051898;28;20574;-70
2022/12/25 07:05:55;;;;;;;1999.90;999.90;;;9.80;99.90;;;;;;5051612;28;20423;-70
2022/12/25 07:08:21;;;;;;;1999.90;999.90;;;9.80;99.90;;;;;;5051650;28;20177;-69
2022/12/25 07:10:47;;;;;;;1999.90;999.90;;;9.70;99.90;;;;;;5051784;28;20173;-70
2022/12/25 07:13:12;;;;;;;1999.90;999.90;;;9.70;99.90;;;;;;5051719;28;20641;-69
2022/12/25 07:15:38;;;;;;;1999.90;999.90;;;9.70;99.90;;;;;;5053422;28;20218;-69
2022/12/25 07:18:03;;;;;;;1999.90;999.90;;;9.70;99.90;;;;;;5055500;28;20165;-70
2022/12/25 07:20:29;;;;;;;1999.90;999.90;;;9.70;99.90;;;;;;5055948;28;20170;-70
2022/12/25 07:22:55;;;;;;;1999.90;999.90;;;9.70;99.90;;;;;;5055589;28;20188;-69
2022/12/25 07:25:20;;;;;;;1999.90;999.90;;;9.70;99.90;;;;;;5055489;28;20668;-69
2022/12/25 07:27:46;;;;;;;1999.90;999.90;;;9.80;99.90;;;;;;5055257;28;20201;-69
2022/12/25 07:30:12;;;;;;;1999.90;999.90;;;9.70;99.90;;;;;;5055688;28;20215;-69
2022/12/25 07:32:37;;;;;;;1999.90;999.90;;;9.70;99.90;;;;;;5055365;28;20178;-70
2022/12/25 07:35:03;;;;;;;1999.90;999.90;;;9.70;99.90;;;;;;5055404;28;20435;-69
2022/12/25 07:37:29;;;;;;;1999.90;999.90;;;9.70;99.90;;;;;;5055168;28;20173;-69
2022/12/25 07:39:54;;;;;;;1999.90;999.90;;;9.70;99.90;;;;;;5055256;28;20888;-69
2022/12/25 07:42:20;;;;;;;1999.90;999.90;;;9.70;99.90;;;;;;5055163;28;20270;-69
2022/12/25 07:44:45;;;;;;;1999.90;999.90;;;9.80;99.90;;;;;;5055136;28;20196;-70
2022/12/25 07:47:13;;;;;;;1999.90;999.90;;;9.80;99.90;;;;;;5055003;28;20191;-69
2022/12/25 07:49:39;;;;;;;1999.90;999.90;;;9.90;99.90;;;;;;5055086;28;20576;-68
2022/12/25 07:52:04;;;;;;;1999.90;999.90;;;9.90;99.90;;;;;;5055143;28;20523;-69
2022/12/25 07:54:30;;;;;;;1999.90;999.90;;;10.00;99.90;;;;;;5054952;28;20679;-70
2022/12/25 07:56:55;;;;;;;1999.90;999.90;;;9.90;99.90;;;;;;5055018;28;20171;-70
2022/12/25 07:59:21;;;;;;;1999.90;999.90;;;9.90;99.90;;;;;;5054782;28;20175;-70
2022/12/25 08:01:49;;;;;;;1999.90;999.90;;;9.90;99.90;;;;;;5054917;28;20176;-69
2022/12/25 08:04:14;;;;;;;1999.90;999.90;;;9.80;99.90;;;;;;5054818;28;20214;-70
2022/12/25 08:06:40;;;;;;;1999.90;999.90;;;9.90;99.90;;;;;;5054727;28;20413;-71
2022/12/25 08:09:11;;;;;;;1999.90;999.90;;;9.90;99.90;;;;;;5054641;28;20250;-70
2022/12/25 08:11:37;;;;;;;1999.90;999.90;;;9.90;99.90;;;;;;5054950;28;20174;-70
2022/12/25 08:14:07;;;;;;;1999.90;999.90;;;9.90;99.90;;;;;;5054802;28;20415;-70
2022/12/25 08:16:33;;;;;;;1999.90;999.90;;;9.90;99.90;;;;;;5054516;28;20968;-70
2022/12/25 08:18:58;;;;;;;1999.90;999.90;;;10.00;99.90;;;;;;5054530;28;20408;-70
2022/12/25 08:21:24;;;;;;;1999.90;999.90;;;10.00;99.90;;;;;;5054653;28;20258;-69
2022/12/25 08:23:49;;;;;;;1999.90;999.90;;;10.00;99.90;;;;;;5054433;28;20290;-69
2022/12/25 08:26:18;;;;;;;1999.90;999.90;;;10.00;99.90;;;;;;5053956;28;20560;-69
2022/12/25 08:28:44;;;;;;;1999.90;999.90;;;10.00;99.90;;;;;;5054090;28;20535;-69
2022/12/25 08:31:18;;;;;;;1999.90;999.90;;;10.00;99.90;;;;;;5054397;28;20530;-69
2022/12/25 08:33:44;;;;;;;1999.90;999.90;;;10.00;99.90;;;;;;5054436;28;20784;-69
2022/12/25 08:36:11;;;;;;;1999.90;999.90;;;10.00;99.90;;;;;;5053918;28;20428;-69
2022/12/25 08:38:38;;;;;;;1999.90;999.90;;;10.10;99.90;;;;;;5054050;28;20162;-69
2022/12/25 08:41:04;;;;;;;1999.90;999.90;;;10.00;99.90;;;;;;5054065;28;20431;-69
2022/12/25 08:43:30;;;;;;;1999.90;999.90;;;10.10;99.90;;;;;;5054027;28;20452;-69
2022/12/25 08:45:55;;;;;;;1999.90;999.90;;;10.10;99.90;;;;;;5053762;28;20475;-69
2022/12/25 08:48:21;;;;;;;1999.90;999.90;;;10.10;99.90;;;;;;5053867;28;20178;-68
2022/12/25 08:50:49;;;;;;;1999.90;999.90;;;10.10;99.90;;;;;;5053882;28;20330;-69
2022/12/25 08:53:16;;;;;;;1999.90;999.90;;;10.10;99.90;;;;;;5053892;28;20173;-69
2022/12/25 08:55:42;;;;;;;1999.90;999.90;;;10.20;99.90;;;;;;5053816;28;20936;-69
2022/12/25 08:58:08;;;;;;;1999.90;999.90;;;10.20;99.90;;;;;;5053638;28;20482;-70
2022/12/25 09:00:33;;;;;;;1999.90;999.90;;;10.20;99.90;;;;;;5053788;28;20843;-70
2022/12/25 09:02:59;;;;;;;1999.90;999.90;;;10.20;99.90;;;;;;5053811;28;20526;-69
2022/12/25 09:05:24;;;;;;;1999.90;999.90;;;10.20;99.90;;;;;;5053652;28;20190;-70
2022/12/25 09:07:50;;;;;;;1999.90;999.90;;;10.20;99.90;;;;;;5053432;28;20170;-70
2022/12/25 09:10:16;;;;;;;1999.90;999.90;;;10.10;99.90;;;;;;5053872;28;20171;-71
2022/12/25 09:12:41;;;;;;;1999.90;999.90;;;10.20;99.90;;;;;;5053777;28;20228;-71
2022/12/25 09:15:07;;;;;;;1999.90;999.90;;;10.30;99.90;;;;;;5053327;28;20204;-70
2022/12/25 09:17:33;;;;;;;1999.90;999.90;;;10.30;99.90;;;;;;5053231;28;20581;-70
2022/12/25 09:19:59;;;;;;;1999.90;999.90;;;10.40;99.90;;;;;;5053347;28;20414;-70
2022/12/25 09:22:25;;;;;;;1999.90;999.90;;;10.40;99.90;;;;;;5053316;28;20635;-71
2022/12/25 09:24:50;;;;;;;1999.90;999.90;;;10.40;99.90;;;;;;5053281;28;20834;-70
2022/12/25 09:27:16;;;;;;;1999.90;999.90;;;10.30;99.90;;;;;;5053101;28;20166;-70
2022/12/25 09:29:41;;;;;;;1999.90;999.90;;;10.40;99.90;;;;;;5053146;28;20209;-71
2022/12/25 09:32:07;;;;;;;1999.90;999.90;;;10.30;99.90;;;;;;5053448;28;20248;-70
2022/12/25 09:34:33;;;;;;;1999.90;999.90;;;10.30;99.90;;;;;;5053011;28;20193;-70
2022/12/25 09:36:59;;;;;;;1999.90;999.90;;;10.30;99.90;;;;;;5052891;28;20182;-70
2022/12/25 09:39:24;;;;;;;1999.90;999.90;;;10.30;99.90;;;;;;5052929;28;20200;-69
2022/12/25 09:41:50;;;;;;;1999.90;999.90;;;10.40;99.90;;;;;;5052917;28;20187;-71
2022/12/25 09:44:24;;;;;;;1999.90;999.90;;;10.40;99.90;;;;;;5052795;28;20203;-71
2022/12/25 09:46:54;;;;;;;1999.90;999.90;;;10.40;99.90;;;;;;5052796;28;20171;-69
2022/12/25 09:49:36;;;;;;;1999.90;999.90;;;10.40;99.90;;;;;;5052722;28;20417;-69
2022/12/25 09:52:10;;;;;;;1999.90;999.90;;;10.40;99.90;;;;;;5052965;28;20818;-69
2022/12/25 09:54:51;;;;;;;1999.90;999.90;;;10.40;99.90;;;;;;5052840;28;20438;-69
2022/12/25 09:57:17;;;;;;;1999.90;999.90;;;10.40;99.90;;;;;;5052527;28;20434;-69
2022/12/25 09:59:43;;;;;;;1999.90;999.90;;;10.40;99.90;;;;;;5052619;28;20431;-69
2022/12/25 10:02:39;;;;;;;1999.90;999.90;;;10.40;99.90;;;;;;5052905;28;20179;-69
2022/12/25 10:05:42;;;;;;;1999.90;999.90;;;10.40;99.90;;;;;;5052531;28;20425;-70
2022/12/25 10:08:26;;;;;;;1999.90;999.90;;;10.40;99.90;;;;;;5052320;28;20392;-69
2022/12/25 10:11:02;;;;;;;1999.90;999.90;;;10.30;99.90;;;;;;5052503;28;20393;-69
2022/12/25 10:13:44;;;;;;;1999.90;999.90;;;10.30;99.90;;;;;;5052486;28;20398;-69
2022/12/25 10:16:18;;;;;;;1999.90;999.90;;;10.30;99.90;;;;;;5052246;28;20477;-70
2022/12/25 10:18:59;;;;;;;1999.90;999.90;;;10.30;99.90;;;;;;5052195;28;20954;-69
2022/12/25 10:21:26;;;;;;;1999.90;999.90;;;10.30;99.90;;;;;;5052336;28;20897;-69
2022/12/25 10:24:23;;;;;;;1999.90;999.90;;;10.40;99.90;;;;;;5052172;28;20480;-69
2022/12/25 10:26:52;;;;;;;1999.90;999.90;;;10.40;99.90;;;;;;5051322;28;20405;-69
2022/12/25 10:29:18;;;;;;;1999.90;999.90;;;10.50;99.90;;;;;;5051226;28;20405;-70
2022/12/25 10:31:46;;;;;;;1999.90;999.90;;;10.50;99.90;;;;;;5051878;28;20425;-70
2022/12/25 10:34:13;;;;;;;1999.90;999.90;;;10.60;99.90;;;;;;5052276;28;20788;-70
2022/12/25 10:36:40;;;;;;;1999.90;999.90;;;10.60;99.90;;;;;;5052520;28;20405;-71
2022/12/25 10:39:06;;;;;;;1999.90;999.90;;;10.70;99.90;;;;;;5051387;28;20445;-71
2022/12/25 10:41:57;;;;;;;1999.90;999.90;;;10.70;99.90;;;;;;5052167;28;20430;-70
2022/12/25 10:44:23;;;;;;;1999.90;999.90;;;10.70;99.90;;;;;;5057976;28;20630;-69
2022/12/25 10:47:00;;;;;;;1999.90;999.90;;;10.70;99.90;;;;;;5054117;28;20411;-72
2022/12/25 10:49:35;;;;;;;1999.90;999.90;;;10.70;99.90;;;;;;5051749;28;20408;-71
2022/12/25 10:52:02;;;;;;;1999.90;999.90;;;10.70;99.90;;;;;;5052677;28;20407;-71
2022/12/25 10:54:31;;;;;;;1999.90;999.90;;;10.70;99.90;;;;;;5052200;28;20429;-72
2022/12/25 10:57:07;;;;;;;1999.90;999.90;;;10.70;99.90;;;;;;5058732;28;20402;-70
2022/12/25 10:59:40;;;;;;;1999.90;999.90;;;10.60;99.90;;;;;;5050959;28;20797;-71
2022/12/25 11:02:26;;;;;;;1999.90;999.90;;;10.60;99.90;;;;;;5051611;28;20414;-72
2022/12/25 11:05:08;;;;;;;1999.90;999.90;;;10.70;99.90;;;;;;5051688;28;20425;-72
2022/12/25 11:07:49;;;;;;;1999.90;999.90;;;10.70;99.90;;;;;;5055769;28;20397;-72
2022/12/25 11:10:29;;;;;;;1999.90;999.90;;;10.70;99.90;;;;;;5054506;28;20447;-71
2022/12/25 11:12:55;;;;;;;1999.90;999.90;;;10.80;99.90;;;;;;5055754;28;20515;-72
2022/12/25 11:15:41;;;;;;;1999.90;999.90;;;10.80;99.90;;;;;;5056695;28;20497;-70
2022/12/25 11:18:18;;;;;;;1999.90;999.90;;;10.80;99.90;;;;;;5054758;28;20406;-73
2022/12/25 11:21:14;;;;;;;1999.90;999.90;;;10.90;99.90;;;;;;5065788;28;20780;-72
2022/12/25 11:23:48;;;;;;;1999.90;999.90;;;10.90;99.90;;;;;;5052299;28;20457;-70
2022/12/25 11:26:15;;;;;;;1999.90;999.90;;;11.00;99.90;;;;;;5050950;28;20887;-72
2022/12/25 11:28:43;;;;;;;1999.90;999.90;;;11.00;99.90;;;;;;5050942;28;20405;-73
2022/12/25 11:31:20;;;;;;;1999.90;999.90;;;11.00;99.90;;;;;;5049925;28;20748;-71
2022/12/25 11:33:51;;;;;;;1999.90;999.90;;;11.00;99.90;;;;;;5051567;28;20404;-71
2022/12/25 11:36:28;;;;;;;1999.90;999.90;;;11.00;99.90;;;;;;5050917;28;20443;-69
2022/12/25 11:38:55;;;;;;;1999.90;999.90;;;11.00;99.90;;;;;;5051036;28;20402;-69
2022/12/25 11:41:30;;;;;;;1999.90;999.90;;;11.10;99.90;;;;;;5051103;28;20472;-69
2022/12/25 11:43:58;;;;;;;1999.90;999.90;;;11.10;99.90;;;;;;5051381;28;20487;-69
2022/12/25 11:46:40;;;;;;;1999.90;999.90;;;11.10;99.90;;;;;;5051329;28;20398;-69
2022/12/25 11:49:10;;;;;;;1999.90;999.90;;;11.10;99.90;;;;;;5051275;28;20403;-69
2022/12/25 11:51:40;;;;;;;1999.90;999.90;;;11.10;99.90;;;;;;5051454;28;20402;-69
2022/12/25 11:54:28;;;;;;;1999.90;999.90;;;11.20;99.90;;;;;;5051243;28;20412;-69
2022/12/25 11:56:56;;;;;;;1999.90;999.90;;;11.20;99.90;;;;;;5050943;28;20406;-69
2022/12/25 11:59:37;;;;;;;1999.90;999.90;;;11.20;99.90;;;;;;5051149;28;20405;-70
2022/12/25 12:02:20;;;;;;;1999.90;999.90;;;11.30;99.90;;;;;;5052103;28;20405;-70
2022/12/25 12:04:49;;;;;;;1999.90;999.90;;;11.30;99.90;;;;;;5055094;28;20776;-70
2022/12/25 12:07:18;;;;;;;1999.90;999.90;;;11.30;99.90;;;;;;5054653;28;20405;-70
2022/12/25 12:10:11;;;;;;;1999.90;999.90;;;11.40;99.90;;;;;;5054749;28;20386;-70
2022/12/25 12:12:58;;;;;;;1999.90;999.90;;;11.40;99.90;;;;;;5054609;28;20539;-69
2022/12/25 12:15:27;;;;;;;1999.90;999.90;;;11.40;99.90;;;;;;5054653;28;20512;-70
2022/12/25 12:17:53;;;;;;;1999.90;999.90;;;11.40;99.90;;;;;;5054409;28;20402;-70
2022/12/25 12:20:36;;;;;;;1999.90;999.90;;;11.40;99.90;;;;;;5054588;28;20385;-69
2022/12/25 12:23:12;;;;;;;1999.90;999.90;;;11.40;99.90;;;;;;5054400;28;20192;-69
2022/12/25 12:25:40;;;;;;;1999.90;999.90;;;11.40;99.90;;;;;;5054399;28;20414;-70
2022/12/25 12:28:19;;;;;;;1999.90;999.90;;;11.50;99.90;;;;;;5054218;28;20444;-70
2022/12/25 12:30:54;;;;;;;1999.90;999.90;;;11.50;99.90;;;;;;5054379;28;20899;-69
2022/12/25 12:33:20;;;;;;;1999.90;999.90;;;11.60;99.90;;;;;;5054424;28;20775;-70
2022/12/25 12:35:47;;;;;;;1999.90;999.90;;;11.60;99.90;;;;;;5054130;28;20443;-70
2022/12/25 12:38:21;;;;;;;1999.90;999.90;;;11.60;99.90;;;;;;5054033;28;20899;-70
2022/12/25 12:41:00;;;;;;;1999.90;999.90;;;11.60;99.90;;;;;;5054163;28;20444;-69
2022/12/25 12:43:57;;;;;;;1999.90;999.90;;;11.60;99.90;;;;;;5054120;28;20524;-69
2022/12/25 12:46:26;;;;;;;1999.90;999.90;;;11.60;99.90;;;;;;5054655;28;20414;-69
2022/12/25 12:48:54;;;;;;;1999.90;999.90;;;11.70;99.90;;;;;;5054064;28;20466;-69
2022/12/25 12:51:31;;;;;;;1999.90;999.90;;;11.60;99.90;;;;;;5053957;28;20402;-69
2022/12/25 12:54:20;;;;;;;1999.90;999.90;;;11.70;99.90;;;;;;5053963;28;20870;-69
2022/12/25 12:56:55;;;;;;;1999.90;999.90;;;11.60;99.90;;;;;;5053680;28;20781;-69
2022/12/25 12:59:21;;;;;;;1999.90;999.90;;;11.70;99.90;;;;;;5053839;28;20756;-69
2022/12/25 13:02:08;;;;;;;1999.90;999.90;;;11.70;99.90;;;;;;5053942;28;20413;-68
2022/12/25 13:04:50;;;;;;;1999.90;999.90;;;11.70;99.90;;;;;;5053717;28;20769;-69
2022/12/25 13:07:43;;;;;;;1999.90;999.90;;;11.70;99.90;;;;;;5053496;28;20494;-70
2022/12/25 13:10:18;;;;;;;1999.90;999.90;;;11.70;99.90;;;;;;5053652;28;20930;-69
2022/12/25 13:12:45;;;;;;;1999.90;999.90;;;11.80;99.90;;;;;;5053304;28;20772;-70
2022/12/25 13:15:12;;;;;;;1999.90;999.90;;;11.80;99.90;;;;;;5053975;28;20504;-70
2022/12/25 13:17:43;;;;;;;1999.90;999.90;;;11.80;99.90;;;;;;5053438;28;20502;-69
2022/12/25 13:20:34;;;;;;;1999.90;999.90;;;11.80;99.90;;;;;;5053666;28;20501;-69
2022/12/25 13:23:00;;;;;;;1999.90;999.90;;;11.90;99.90;;;;;;5053347;28;20437;-69
2022/12/25 13:25:25;;;;;;;1999.90;999.90;;;12.00;99.90;;;;;;5053217;28;20437;-69
2022/12/25 13:27:58;;;;;;;1999.90;999.90;;;12.00;99.90;;;;;;5053017;28;20252;-69
2022/12/25 13:30:24;;;;;;;1999.90;999.90;;;12.00;99.90;;;;;;5053451;28;20251;-69
2022/12/25 13:32:50;;;;;;;1999.90;999.90;;;12.00;99.90;;;;;;5053239;28;20806;-69
2022/12/25 13:35:23;;;;;;;1999.90;999.90;;;12.10;99.90;;;;;;5053215;28;20718;-69
2022/12/25 13:37:49;;;;;;;1999.90;999.90;;;12.20;99.90;;;;;;5052866;28;20172;-69
2022/12/25 13:40:33;;;;;;;1999.90;999.90;;;12.20;99.90;;;;;;5053041;28;20439;-70
2022/12/25 13:43:00;;;;;;;1999.90;999.90;;;12.20;99.90;;;;;;5052958;28;21038;-69
2022/12/25 13:45:28;;;;;;;1999.90;999.90;;;12.30;99.90;;;;;;5053095;28;20422;-69
2022/12/25 13:47:54;;;;;;;1999.90;999.90;;;12.30;99.90;;;;;;5052630;28;20434;-70
2022/12/25 13:50:33;;;;;;;1999.90;999.90;;;12.40;99.90;;;;;;5052909;28;20899;-69
2022/12/25 13:53:11;;;;;;;1999.90;999.90;;;12.40;99.90;;;;;;5052793;28;20411;-70
2022/12/25 13:55:36;;;;;;;1999.90;999.90;;;12.40;99.90;;;;;;5052879;28;20426;-69
2022/12/25 13:58:04;;;;;;;1999.90;999.90;;;12.40;99.90;;;;;;5052502;28;20398;-70
2022/12/25 14:00:35;;;;;;;1999.90;999.90;;;12.50;99.90;;;;;;5052725;28;20175;-70